sensor_id;sensor_type;location;lat;lon;timestamp;P1;durP1;ratioP1;P2;durP2;ratioP2
67514;SDS011;60646;55.802;37.032;2024-03-02T00:00:19;28.40;;;13.10;;
67514;SDS011;60646;55.802;37.032;2024-03-02T00:02:48;26.80;;;12.68;;
67514;SDS011;60646;55.802;37.032;2024-03-02T00:05:15;28.65;;;14.27;;
67514;SDS011;60646;55.802;37.032;2024-03-02T00:07:43;28.08;;;13.02;;
67514;SDS011;60646;55.802;37.032;2024-03-02T00:10:11;26.52;;;12.73;;
67514;SDS011;60646;55.802;37.032;2024-03-02T00:12:43;26.30;;;13.73;;
67514;SDS011;60646;55.802;37.032;2024-03-02T00:17:53;25.50;;;12.80;;
67514;SDS011;60646;55.802;37.032;2024-03-02T00:20:21;25.85;;;12.73;;
67514;SDS011;60646;55.802;37.032;2024-03-02T00:22:48;31.88;;;13.00;;
67514;SDS011;60646;55.802;37.032;2024-03-02T00:25:38;23.30;;;11.13;;
67514;SDS011;60646;55.802;37.032;2024-03-02T00:28:11;18.42;;;11.20;;
67514;SDS011;60646;55.802;37.032;2024-03-02T00:30:58;21.77;;;11.57;;
67514;SDS011;60646;55.802;37.032;2024-03-02T00:33:26;18.23;;;10.52;;
67514;SDS011;60646;55.802;37.032;2024-03-02T00:35:53;20.08;;;10.52;;
67514;SDS011;60646;55.802;37.032;2024-03-02T00:38:20;25.45;;;11.63;;
67514;SDS011;60646;55.802;37.032;2024-03-02T00:40:45;21.17;;;10.65;;
67514;SDS011;60646;55.802;37.032;2024-03-02T00:45:50;24.10;;;10.63;;
67514;SDS011;60646;55.802;37.032;2024-03-02T00:48:16;20.60;;;10.93;;
67514;SDS011;60646;55.802;37.032;2024-03-02T00:51:00;23.58;;;11.38;;
67514;SDS011;60646;55.802;37.032;2024-03-02T00:53:26;21.55;;;10.88;;
67514;SDS011;60646;55.802;37.032;2024-03-02T00:55:52;20.05;;;11.35;;
67514;SDS011;60646;55.802;37.032;2024-03-02T00:58:18;24.00;;;10.73;;
67514;SDS011;60646;55.802;37.032;2024-03-02T01:00:44;19.85;;;11.07;;
67514;SDS011;60646;55.802;37.032;2024-03-02T01:03:10;23.58;;;10.60;;
67514;SDS011;60646;55.802;37.032;2024-03-02T01:05:36;20.98;;;10.70;;
67514;SDS011;60646;55.802;37.032;2024-03-02T01:08:02;23.77;;;11.50;;
67514;SDS011;60646;55.802;37.032;2024-03-02T01:10:28;20.88;;;11.43;;
67514;SDS011;60646;55.802;37.032;2024-03-02T01:12:54;23.80;;;10.80;;
67514;SDS011;60646;55.802;37.032;2024-03-02T01:15:20;27.00;;;12.00;;
67514;SDS011;60646;55.802;37.032;2024-03-02T01:17:46;22.60;;;11.15;;
67514;SDS011;60646;55.802;37.032;2024-03-02T01:20:12;21.58;;;12.18;;
67514;SDS011;60646;55.802;37.032;2024-03-02T01:22:38;27.73;;;12.98;;
67514;SDS011;60646;55.802;37.032;2024-03-02T01:25:03;27.20;;;11.80;;
67514;SDS011;60646;55.802;37.032;2024-03-02T01:27:30;22.90;;;12.30;;
67514;SDS011;60646;55.802;37.032;2024-03-02T01:29:55;30.88;;;12.38;;
67514;SDS011;60646;55.802;37.032;2024-03-02T01:32:21;24.85;;;12.32;;
67514;SDS011;60646;55.802;37.032;2024-03-02T01:34:47;22.15;;;11.32;;
67514;SDS011;60646;55.802;37.032;2024-03-02T01:37:13;23.50;;;11.32;;
67514;SDS011;60646;55.802;37.032;2024-03-02T01:39:39;26.58;;;12.10;;
67514;SDS011;60646;55.802;37.032;2024-03-02T01:42:04;22.10;;;11.23;;
67514;SDS011;60646;55.802;37.032;2024-03-02T01:44:30;23.30;;;10.85;;
67514;SDS011;60646;55.802;37.032;2024-03-02T01:46:56;21.63;;;11.73;;
67514;SDS011;60646;55.802;37.032;2024-03-02T01:49:22;24.38;;;12.88;;
67514;SDS011;60646;55.802;37.032;2024-03-02T01:51:48;26.95;;;11.38;;
67514;SDS011;60646;55.802;37.032;2024-03-02T01:54:14;26.58;;;12.55;;
67514;SDS011;60646;55.802;37.032;2024-03-02T01:56:40;27.35;;;13.02;;
67514;SDS011;60646;55.802;37.032;2024-03-02T01:59:06;34.28;;;15.38;;
67514;SDS011;60646;55.802;37.032;2024-03-02T02:01:32;29.55;;;13.25;;
67514;SDS011;60646;55.802;37.032;2024-03-02T02:03:58;27.25;;;14.35;;
67514;SDS011;60646;55.802;37.032;2024-03-02T02:06:23;31.85;;;12.77;;
67514;SDS011;60646;55.802;37.032;2024-03-02T02:08:49;27.85;;;12.55;;
67514;SDS011;60646;55.802;37.032;2024-03-02T02:11:16;25.67;;;13.15;;
67514;SDS011;60646;55.802;37.032;2024-03-02T02:13:42;30.48;;;13.43;;
67514;SDS011;60646;55.802;37.032;2024-03-02T02:16:08;27.02;;;13.55;;
67514;SDS011;60646;55.802;37.032;2024-03-02T02:18:35;26.90;;;12.60;;
67514;SDS011;60646;55.802;37.032;2024-03-02T02:21:03;26.00;;;12.85;;
67514;SDS011;60646;55.802;37.032;2024-03-02T02:23:29;22.08;;;11.23;;
67514;SDS011;60646;55.802;37.032;2024-03-02T02:25:54;28.15;;;13.15;;
67514;SDS011;60646;55.802;37.032;2024-03-02T02:28:20;21.65;;;11.48;;
67514;SDS011;60646;55.802;37.032;2024-03-02T02:30:46;23.77;;;11.80;;
67514;SDS011;60646;55.802;37.032;2024-03-02T02:33:12;24.77;;;11.02;;
67514;SDS011;60646;55.802;37.032;2024-03-02T02:35:38;26.58;;;12.02;;
67514;SDS011;60646;55.802;37.032;2024-03-02T02:38:04;24.00;;;11.60;;
67514;SDS011;60646;55.802;37.032;2024-03-02T02:40:30;29.20;;;12.13;;
67514;SDS011;60646;55.802;37.032;2024-03-02T02:42:56;23.05;;;11.77;;
67514;SDS011;60646;55.802;37.032;2024-03-02T02:45:22;23.30;;;11.48;;
67514;SDS011;60646;55.802;37.032;2024-03-02T02:47:48;24.75;;;11.63;;
67514;SDS011;60646;55.802;37.032;2024-03-02T02:50:14;25.80;;;13.20;;
67514;SDS011;60646;55.802;37.032;2024-03-02T02:52:41;25.98;;;12.15;;
67514;SDS011;60646;55.802;37.032;2024-03-02T02:55:09;24.20;;;11.90;;
67514;SDS011;60646;55.802;37.032;2024-03-02T02:57:36;23.60;;;11.95;;
67514;SDS011;60646;55.802;37.032;2024-03-02T03:02:40;22.65;;;12.23;;
67514;SDS011;60646;55.802;37.032;2024-03-02T03:05:07;22.95;;;11.57;;
67514;SDS011;60646;55.802;37.032;2024-03-02T03:07:36;24.88;;;12.25;;
67514;SDS011;60646;55.802;37.032;2024-03-02T03:10:03;26.23;;;11.80;;
67514;SDS011;60646;55.802;37.032;2024-03-02T03:12:30;24.80;;;11.32;;
67514;SDS011;60646;55.802;37.032;2024-03-02T03:14:59;27.05;;;12.18;;
67514;SDS011;60646;55.802;37.032;2024-03-02T03:17:26;22.80;;;12.23;;
67514;SDS011;60646;55.802;37.032;2024-03-02T03:19:53;26.92;;;12.27;;
67514;SDS011;60646;55.802;37.032;2024-03-02T03:22:18;25.95;;;12.88;;
67514;SDS011;60646;55.802;37.032;2024-03-02T03:24:44;24.77;;;12.52;;
67514;SDS011;60646;55.802;37.032;2024-03-02T03:27:10;27.38;;;12.80;;
67514;SDS011;60646;55.802;37.032;2024-03-02T03:29:37;24.30;;;12.35;;
67514;SDS011;60646;55.802;37.032;2024-03-02T03:32:03;27.05;;;12.57;;
67514;SDS011;60646;55.802;37.032;2024-03-02T03:34:33;23.27;;;12.27;;
67514;SDS011;60646;55.802;37.032;2024-03-02T03:37:00;24.90;;;12.30;;
67514;SDS011;60646;55.802;37.032;2024-03-02T03:39:26;26.67;;;12.32;;
67514;SDS011;60646;55.802;37.032;2024-03-02T03:41:51;26.80;;;13.00;;
67514;SDS011;60646;55.802;37.032;2024-03-02T03:44:17;24.23;;;11.73;;
67514;SDS011;60646;55.802;37.032;2024-03-02T03:46:43;23.77;;;12.38;;
67514;SDS011;60646;55.802;37.032;2024-03-02T03:49:09;24.88;;;11.98;;
67514;SDS011;60646;55.802;37.032;2024-03-02T03:51:34;19.40;;;11.35;;
67514;SDS011;60646;55.802;37.032;2024-03-02T03:54:01;21.73;;;11.70;;
67514;SDS011;60646;55.802;37.032;2024-03-02T03:56:27;21.33;;;11.18;;
67514;SDS011;60646;55.802;37.032;2024-03-02T03:58:53;22.70;;;11.25;;
67514;SDS011;60646;55.802;37.032;2024-03-02T04:01:19;22.45;;;11.15;;
67514;SDS011;60646;55.802;37.032;2024-03-02T04:03:45;23.88;;;11.73;;
67514;SDS011;60646;55.802;37.032;2024-03-02T04:06:10;21.15;;;10.90;;
67514;SDS011;60646;55.802;37.032;2024-03-02T04:08:36;25.80;;;12.45;;
67514;SDS011;60646;55.802;37.032;2024-03-02T04:11:02;21.02;;;11.18;;
67514;SDS011;60646;55.802;37.032;2024-03-02T04:13:30;19.77;;;10.93;;
67514;SDS011;60646;55.802;37.032;2024-03-02T04:15:56;22.20;;;11.45;;
67514;SDS011;60646;55.802;37.032;2024-03-02T04:18:21;23.45;;;11.73;;
67514;SDS011;60646;55.802;37.032;2024-03-02T04:20:47;19.70;;;10.65;;
67514;SDS011;60646;55.802;37.032;2024-03-02T04:23:13;24.98;;;10.93;;
67514;SDS011;60646;55.802;37.032;2024-03-02T04:25:39;22.02;;;11.68;;
67514;SDS011;60646;55.802;37.032;2024-03-02T04:28:05;21.60;;;11.05;;
67514;SDS011;60646;55.802;37.032;2024-03-02T04:30:30;20.10;;;10.82;;
67514;SDS011;60646;55.802;37.032;2024-03-02T04:32:56;20.33;;;11.30;;
67514;SDS011;60646;55.802;37.032;2024-03-02T04:35:22;21.15;;;11.13;;
67514;SDS011;60646;55.802;37.032;2024-03-02T04:37:48;24.10;;;11.90;;
67514;SDS011;60646;55.802;37.032;2024-03-02T04:40:14;25.02;;;12.18;;
67514;SDS011;60646;55.802;37.032;2024-03-02T04:42:40;24.02;;;11.80;;
67514;SDS011;60646;55.802;37.032;2024-03-02T04:45:06;23.20;;;12.65;;
67514;SDS011;60646;55.802;37.032;2024-03-02T04:47:32;26.40;;;12.40;;
67514;SDS011;60646;55.802;37.032;2024-03-02T04:49:58;27.77;;;12.25;;
67514;SDS011;60646;55.802;37.032;2024-03-02T04:52:24;24.42;;;12.07;;
67514;SDS011;60646;55.802;37.032;2024-03-02T04:54:50;25.25;;;11.90;;
67514;SDS011;60646;55.802;37.032;2024-03-02T04:57:34;27.73;;;11.88;;
67514;SDS011;60646;55.802;37.032;2024-03-02T05:00:00;25.67;;;12.23;;
67514;SDS011;60646;55.802;37.032;2024-03-02T05:02:35;27.77;;;12.93;;
67514;SDS011;60646;55.802;37.032;2024-03-02T05:05:01;24.73;;;12.38;;
67514;SDS011;60646;55.802;37.032;2024-03-02T05:07:29;26.17;;;12.23;;
67514;SDS011;60646;55.802;37.032;2024-03-02T05:09:55;23.60;;;11.80;;
67514;SDS011;60646;55.802;37.032;2024-03-02T05:12:22;29.92;;;11.85;;
67514;SDS011;60646;55.802;37.032;2024-03-02T05:15:06;21.88;;;11.77;;
67514;SDS011;60646;55.802;37.032;2024-03-02T05:17:33;24.48;;;11.93;;
67514;SDS011;60646;55.802;37.032;2024-03-02T05:19:59;22.80;;;10.93;;
67514;SDS011;60646;55.802;37.032;2024-03-02T05:22:25;22.08;;;12.25;;
67514;SDS011;60646;55.802;37.032;2024-03-02T05:24:50;24.45;;;12.05;;
67514;SDS011;60646;55.802;37.032;2024-03-02T05:27:16;23.17;;;11.88;;
67514;SDS011;60646;55.802;37.032;2024-03-02T05:29:42;26.17;;;11.85;;
67514;SDS011;60646;55.802;37.032;2024-03-02T05:32:08;26.73;;;12.45;;
67514;SDS011;60646;55.802;37.032;2024-03-02T05:34:33;26.00;;;12.63;;
67514;SDS011;60646;55.802;37.032;2024-03-02T05:37:01;29.77;;;13.60;;
67514;SDS011;60646;55.802;37.032;2024-03-02T05:39:27;31.60;;;14.63;;
67514;SDS011;60646;55.802;37.032;2024-03-02T05:41:53;31.40;;;15.00;;
67514;SDS011;60646;55.802;37.032;2024-03-02T05:44:18;30.20;;;13.73;;
67514;SDS011;60646;55.802;37.032;2024-03-02T05:46:45;29.25;;;13.88;;
67514;SDS011;60646;55.802;37.032;2024-03-02T05:49:29;30.02;;;13.50;;
67514;SDS011;60646;55.802;37.032;2024-03-02T05:51:55;30.15;;;13.40;;
67514;SDS011;60646;55.802;37.032;2024-03-02T05:54:40;26.48;;;13.30;;
67514;SDS011;60646;55.802;37.032;2024-03-02T05:57:05;26.38;;;12.52;;
67514;SDS011;60646;55.802;37.032;2024-03-02T06:00:04;24.60;;;12.02;;
67514;SDS011;60646;55.802;37.032;2024-03-02T06:02:41;26.83;;;12.02;;
67514;SDS011;60646;55.802;37.032;2024-03-02T06:05:06;26.08;;;14.05;;
67514;SDS011;60646;55.802;37.032;2024-03-02T06:07:33;23.52;;;13.02;;
67514;SDS011;60646;55.802;37.032;2024-03-02T06:09:58;28.77;;;13.60;;
67514;SDS011;60646;55.802;37.032;2024-03-02T06:12:24;28.13;;;14.60;;
67514;SDS011;60646;55.802;37.032;2024-03-02T06:14:50;28.60;;;13.18;;
67514;SDS011;60646;55.802;37.032;2024-03-02T06:17:16;30.77;;;13.57;;
67514;SDS011;60646;55.802;37.032;2024-03-02T06:19:42;27.13;;;13.05;;
67514;SDS011;60646;55.802;37.032;2024-03-02T06:22:08;25.13;;;12.88;;
67514;SDS011;60646;55.802;37.032;2024-03-02T06:24:35;25.58;;;12.85;;
67514;SDS011;60646;55.802;37.032;2024-03-02T06:27:02;26.67;;;12.77;;
67514;SDS011;60646;55.802;37.032;2024-03-02T06:29:28;29.08;;;13.82;;
67514;SDS011;60646;55.802;37.032;2024-03-02T06:31:53;30.42;;;14.10;;
67514;SDS011;60646;55.802;37.032;2024-03-02T06:34:19;30.00;;;13.68;;
67514;SDS011;60646;55.802;37.032;2024-03-02T06:36:48;28.83;;;13.50;;
67514;SDS011;60646;55.802;37.032;2024-03-02T06:39:14;28.60;;;13.43;;
67514;SDS011;60646;55.802;37.032;2024-03-02T06:41:40;26.50;;;13.50;;
67514;SDS011;60646;55.802;37.032;2024-03-02T06:47:52;29.02;;;13.80;;
67514;SDS011;60646;55.802;37.032;2024-03-02T06:50:17;31.45;;;14.18;;
67514;SDS011;60646;55.802;37.032;2024-03-02T06:52:43;27.13;;;12.63;;
67514;SDS011;60646;55.802;37.032;2024-03-02T06:55:09;27.50;;;13.90;;
67514;SDS011;60646;55.802;37.032;2024-03-02T06:57:35;26.30;;;13.68;;
67514;SDS011;60646;55.802;37.032;2024-03-02T07:00:01;29.23;;;13.80;;
67514;SDS011;60646;55.802;37.032;2024-03-02T07:02:30;28.98;;;13.48;;
67514;SDS011;60646;55.802;37.032;2024-03-02T07:04:56;28.05;;;13.82;;
67514;SDS011;60646;55.802;37.032;2024-03-02T07:07:22;29.95;;;13.35;;
67514;SDS011;60646;55.802;37.032;2024-03-02T07:09:48;25.92;;;13.55;;
67514;SDS011;60646;55.802;37.032;2024-03-02T07:12:14;28.80;;;13.27;;
67514;SDS011;60646;55.802;37.032;2024-03-02T07:14:40;29.38;;;13.88;;
67514;SDS011;60646;55.802;37.032;2024-03-02T07:17:25;33.50;;;13.77;;
67514;SDS011;60646;55.802;37.032;2024-03-02T07:19:51;29.48;;;14.15;;
67514;SDS011;60646;55.802;37.032;2024-03-02T07:22:35;29.83;;;14.20;;
67514;SDS011;60646;55.802;37.032;2024-03-02T07:25:03;31.73;;;14.80;;
67514;SDS011;60646;55.802;37.032;2024-03-02T07:27:30;32.13;;;14.50;;
67514;SDS011;60646;55.802;37.032;2024-03-02T07:29:56;34.08;;;14.68;;
67514;SDS011;60646;55.802;37.032;2024-03-02T07:32:22;32.90;;;15.65;;
67514;SDS011;60646;55.802;37.032;2024-03-02T07:34:48;34.83;;;14.98;;
67514;SDS011;60646;55.802;37.032;2024-03-02T07:37:16;30.02;;;14.25;;
67514;SDS011;60646;55.802;37.032;2024-03-02T07:39:44;30.83;;;15.07;;
67514;SDS011;60646;55.802;37.032;2024-03-02T07:42:21;31.65;;;14.23;;
67514;SDS011;60646;55.802;37.032;2024-03-02T07:44:47;32.58;;;15.88;;
67514;SDS011;60646;55.802;37.032;2024-03-02T07:47:13;38.17;;;16.08;;
67514;SDS011;60646;55.802;37.032;2024-03-02T07:49:39;36.30;;;15.93;;
67514;SDS011;60646;55.802;37.032;2024-03-02T07:52:06;32.42;;;14.88;;
67514;SDS011;60646;55.802;37.032;2024-03-02T07:54:32;29.42;;;14.45;;
67514;SDS011;60646;55.802;37.032;2024-03-02T07:56:58;30.70;;;15.15;;
67514;SDS011;60646;55.802;37.032;2024-03-02T07:59:24;34.15;;;15.60;;
67514;SDS011;60646;55.802;37.032;2024-03-02T08:01:50;26.90;;;14.32;;
67514;SDS011;60646;55.802;37.032;2024-03-02T08:04:16;32.97;;;14.32;;
67514;SDS011;60646;55.802;37.032;2024-03-02T08:06:42;31.27;;;14.23;;
67514;SDS011;60646;55.802;37.032;2024-03-02T08:09:08;31.65;;;14.32;;
67514;SDS011;60646;55.802;37.032;2024-03-02T08:11:35;34.90;;;16.38;;
67514;SDS011;60646;55.802;37.032;2024-03-02T08:14:03;29.98;;;14.45;;
67514;SDS011;60646;55.802;37.032;2024-03-02T08:16:29;31.73;;;15.52;;
67514;SDS011;60646;55.802;37.032;2024-03-02T08:18:55;32.20;;;14.32;;
67514;SDS011;60646;55.802;37.032;2024-03-02T08:21:40;33.47;;;15.18;;
67514;SDS011;60646;55.802;37.032;2024-03-02T08:24:06;31.85;;;15.50;;
67514;SDS011;60646;55.802;37.032;2024-03-02T08:26:32;34.65;;;16.20;;
67514;SDS011;60646;55.802;37.032;2024-03-02T08:28:58;34.33;;;15.38;;
67514;SDS011;60646;55.802;37.032;2024-03-02T08:31:24;36.33;;;15.52;;
67514;SDS011;60646;55.802;37.032;2024-03-02T08:33:50;35.30;;;16.05;;
67514;SDS011;60646;55.802;37.032;2024-03-02T08:36:16;37.25;;;15.45;;
67514;SDS011;60646;55.802;37.032;2024-03-02T08:38:47;35.83;;;15.75;;
67514;SDS011;60646;55.802;37.032;2024-03-02T08:41:15;33.08;;;15.90;;
67514;SDS011;60646;55.802;37.032;2024-03-02T08:43:41;29.90;;;14.05;;
67514;SDS011;60646;55.802;37.032;2024-03-02T08:46:08;37.85;;;15.85;;
67514;SDS011;60646;55.802;37.032;2024-03-02T08:48:34;36.65;;;16.30;;
67514;SDS011;60646;55.802;37.032;2024-03-02T08:51:00;35.25;;;16.73;;
67514;SDS011;60646;55.802;37.032;2024-03-02T08:53:26;33.35;;;15.65;;
67514;SDS011;60646;55.802;37.032;2024-03-02T08:55:52;34.80;;;16.83;;
67514;SDS011;60646;55.802;37.032;2024-03-02T08:58:20;29.80;;;14.77;;
67514;SDS011;60646;55.802;37.032;2024-03-02T09:00:46;33.83;;;15.18;;
67514;SDS011;60646;55.802;37.032;2024-03-02T09:03:12;35.45;;;16.50;;
67514;SDS011;60646;55.802;37.032;2024-03-02T09:05:38;33.63;;;15.20;;
67514;SDS011;60646;55.802;37.032;2024-03-02T09:08:04;33.90;;;15.45;;
67514;SDS011;60646;55.802;37.032;2024-03-02T09:10:30;34.28;;;16.25;;
67514;SDS011;60646;55.802;37.032;2024-03-02T09:12:56;33.00;;;16.10;;
67514;SDS011;60646;55.802;37.032;2024-03-02T09:15:22;35.92;;;16.40;;
67514;SDS011;60646;55.802;37.032;2024-03-02T09:17:48;32.38;;;16.05;;
67514;SDS011;60646;55.802;37.032;2024-03-02T09:20:14;37.47;;;17.40;;
67514;SDS011;60646;55.802;37.032;2024-03-02T09:22:40;39.08;;;17.00;;
67514;SDS011;60646;55.802;37.032;2024-03-02T09:25:07;37.47;;;17.88;;
67514;SDS011;60646;55.802;37.032;2024-03-02T09:27:37;38.53;;;18.13;;
67514;SDS011;60646;55.802;37.032;2024-03-02T09:30:07;42.40;;;18.00;;
67514;SDS011;60646;55.802;37.032;2024-03-02T09:32:34;37.15;;;18.48;;
67514;SDS011;60646;55.802;37.032;2024-03-02T09:35:00;39.08;;;18.77;;
67514;SDS011;60646;55.802;37.032;2024-03-02T09:37:26;38.60;;;18.23;;
67514;SDS011;60646;55.802;37.032;2024-03-02T09:39:52;37.63;;;18.85;;
67514;SDS011;60646;55.802;37.032;2024-03-02T09:42:18;42.08;;;19.52;;
67514;SDS011;60646;55.802;37.032;2024-03-02T09:44:45;39.63;;;19.30;;
67514;SDS011;60646;55.802;37.032;2024-03-02T09:47:13;40.30;;;18.65;;
67514;SDS011;60646;55.802;37.032;2024-03-02T09:49:39;38.40;;;18.55;;
67514;SDS011;60646;55.802;37.032;2024-03-02T09:52:05;43.83;;;21.15;;
67514;SDS011;60646;55.802;37.032;2024-03-02T09:54:32;43.67;;;21.38;;
67514;SDS011;60646;55.802;37.032;2024-03-02T09:56:58;38.63;;;19.17;;
67514;SDS011;60646;55.802;37.032;2024-03-02T09:59:24;40.83;;;18.27;;
67514;SDS011;60646;55.802;37.032;2024-03-02T10:01:55;40.22;;;19.17;;
67514;SDS011;60646;55.802;37.032;2024-03-02T10:04:28;31.63;;;17.15;;
67514;SDS011;60646;55.802;37.032;2024-03-02T10:09:42;37.85;;;17.15;;
67514;SDS011;60646;55.802;37.032;2024-03-02T10:12:10;34.17;;;16.80;;
67514;SDS011;60646;55.802;37.032;2024-03-02T10:14:37;45.28;;;19.25;;
67514;SDS011;60646;55.802;37.032;2024-03-02T10:17:05;38.05;;;17.45;;
67514;SDS011;60646;55.802;37.032;2024-03-02T10:19:33;40.10;;;18.83;;
67514;SDS011;60646;55.802;37.032;2024-03-02T10:22:03;36.10;;;17.33;;
67514;SDS011;60646;55.802;37.032;2024-03-02T10:24:38;35.88;;;17.35;;
67514;SDS011;60646;55.802;37.032;2024-03-02T10:27:10;34.63;;;17.33;;
67514;SDS011;60646;55.802;37.032;2024-03-02T10:29:41;34.42;;;17.35;;
67514;SDS011;60646;55.802;37.032;2024-03-02T10:32:10;34.72;;;17.17;;
67514;SDS011;60646;55.802;37.032;2024-03-02T10:34:37;34.05;;;16.45;;
67514;SDS011;60646;55.802;37.032;2024-03-02T10:37:05;34.63;;;16.70;;
67514;SDS011;60646;55.802;37.032;2024-03-02T10:39:35;34.17;;;15.10;;
67514;SDS011;60646;55.802;37.032;2024-03-02T10:42:02;36.78;;;17.00;;
67514;SDS011;60646;55.802;37.032;2024-03-02T10:44:49;33.88;;;16.13;;
67514;SDS011;60646;55.802;37.032;2024-03-02T10:47:16;36.00;;;17.02;;
67514;SDS011;60646;55.802;37.032;2024-03-02T10:49:45;37.58;;;16.85;;
67514;SDS011;60646;55.802;37.032;2024-03-02T10:52:12;38.88;;;17.92;;
67514;SDS011;60646;55.802;37.032;2024-03-02T10:54:38;38.28;;;18.35;;
67514;SDS011;60646;55.802;37.032;2024-03-02T10:57:05;37.38;;;17.70;;
67514;SDS011;60646;55.802;37.032;2024-03-02T10:59:35;36.38;;;16.75;;
67514;SDS011;60646;55.802;37.032;2024-03-02T11:02:04;37.20;;;17.33;;
67514;SDS011;60646;55.802;37.032;2024-03-02T11:04:34;35.28;;;15.68;;
67514;SDS011;60646;55.802;37.032;2024-03-02T11:09:33;38.42;;;17.45;;
67514;SDS011;60646;55.802;37.032;2024-03-02T11:12:06;33.42;;;16.75;;
67514;SDS011;60646;55.802;37.032;2024-03-02T11:14:40;33.75;;;17.40;;
67514;SDS011;60646;55.802;37.032;2024-03-02T11:17:10;36.67;;;17.13;;
67514;SDS011;60646;55.802;37.032;2024-03-02T11:20:03;40.83;;;18.48;;
67514;SDS011;60646;55.802;37.032;2024-03-02T11:22:30;36.63;;;17.60;;
67514;SDS011;60646;55.802;37.032;2024-03-02T11:24:56;36.55;;;17.00;;
67514;SDS011;60646;55.802;37.032;2024-03-02T11:33:00;36.55;;;18.50;;
67514;SDS011;60646;55.802;37.032;2024-03-02T11:35:51;33.08;;;16.73;;
67514;SDS011;60646;55.802;37.032;2024-03-02T11:38:17;38.13;;;17.08;;
67514;SDS011;60646;55.802;37.032;2024-03-02T11:40:44;31.88;;;16.67;;
67514;SDS011;60646;55.802;37.032;2024-03-02T11:43:29;36.53;;;15.73;;
67514;SDS011;60646;55.802;37.032;2024-03-02T11:45:58;36.78;;;16.90;;
67514;SDS011;60646;55.802;37.032;2024-03-02T11:48:32;33.35;;;15.82;;
67514;SDS011;60646;55.802;37.032;2024-03-02T11:51:02;38.65;;;16.13;;
67514;SDS011;60646;55.802;37.032;2024-03-02T11:53:28;28.85;;;14.15;;
67514;SDS011;60646;55.802;37.032;2024-03-02T11:56:18;33.20;;;15.55;;
67514;SDS011;60646;55.802;37.032;2024-03-02T11:58:45;34.22;;;14.15;;
67514;SDS011;60646;55.802;37.032;2024-03-02T12:01:16;28.42;;;14.02;;
67514;SDS011;60646;55.802;37.032;2024-03-02T12:03:53;30.48;;;15.20;;
67514;SDS011;60646;55.802;37.032;2024-03-02T12:06:21;30.70;;;15.27;;
67514;SDS011;60646;55.802;37.032;2024-03-02T12:08:50;36.63;;;16.02;;
67514;SDS011;60646;55.802;37.032;2024-03-02T12:11:19;31.02;;;15.18;;
67514;SDS011;60646;55.802;37.032;2024-03-02T12:13:52;36.08;;;15.57;;
67514;SDS011;60646;55.802;37.032;2024-03-02T12:16:23;32.63;;;15.07;;
67514;SDS011;60646;55.802;37.032;2024-03-02T12:21:59;33.88;;;15.32;;
67514;SDS011;60646;55.802;37.032;2024-03-02T12:24:26;33.47;;;15.43;;
67514;SDS011;60646;55.802;37.032;2024-03-02T12:26:54;31.92;;;15.15;;
67514;SDS011;60646;55.802;37.032;2024-03-02T12:29:20;31.48;;;14.95;;
67514;SDS011;60646;55.802;37.032;2024-03-02T12:31:50;36.72;;;16.02;;
67514;SDS011;60646;55.802;37.032;2024-03-02T12:34:21;34.38;;;16.35;;
67514;SDS011;60646;55.802;37.032;2024-03-02T12:36:47;37.05;;;16.55;;
67514;SDS011;60646;55.802;37.032;2024-03-02T12:39:18;34.05;;;15.40;;
67514;SDS011;60646;55.802;37.032;2024-03-02T12:41:48;35.00;;;16.48;;
67514;SDS011;60646;55.802;37.032;2024-03-02T12:44:19;35.63;;;15.95;;
67514;SDS011;60646;55.802;37.032;2024-03-02T12:46:45;36.28;;;16.00;;
67514;SDS011;60646;55.802;37.032;2024-03-02T12:49:13;32.47;;;15.52;;
67514;SDS011;60646;55.802;37.032;2024-03-02T12:51:46;33.45;;;14.88;;
67514;SDS011;60646;55.802;37.032;2024-03-02T12:54:12;37.88;;;15.65;;
67514;SDS011;60646;55.802;37.032;2024-03-02T12:56:40;31.50;;;14.55;;
67514;SDS011;60646;55.802;37.032;2024-03-02T12:59:18;31.40;;;14.95;;
67514;SDS011;60646;55.802;37.032;2024-03-02T13:01:54;31.10;;;14.23;;
67514;SDS011;60646;55.802;37.032;2024-03-02T13:04:26;32.38;;;14.52;;
67514;SDS011;60646;55.802;37.032;2024-03-02T13:06:56;30.52;;;14.40;;
67514;SDS011;60646;55.802;37.032;2024-03-02T13:09:23;31.85;;;15.32;;
67514;SDS011;60646;55.802;37.032;2024-03-02T13:11:50;37.42;;;17.05;;
67514;SDS011;60646;55.802;37.032;2024-03-02T13:14:21;32.10;;;14.52;;
67514;SDS011;60646;55.802;37.032;2024-03-02T13:17:35;27.58;;;13.27;;
67514;SDS011;60646;55.802;37.032;2024-03-02T13:20:02;29.90;;;13.88;;
67514;SDS011;60646;55.802;37.032;2024-03-02T13:22:31;27.92;;;13.57;;
67514;SDS011;60646;55.802;37.032;2024-03-02T13:24:56;34.20;;;15.35;;
67514;SDS011;60646;55.802;37.032;2024-03-02T13:27:23;32.80;;;14.20;;
67514;SDS011;60646;55.802;37.032;2024-03-02T13:29:49;28.30;;;13.90;;
67514;SDS011;60646;55.802;37.032;2024-03-02T13:32:16;30.65;;;15.10;;
67514;SDS011;60646;55.802;37.032;2024-03-02T13:34:42;28.02;;;14.18;;
67514;SDS011;60646;55.802;37.032;2024-03-02T13:37:09;31.00;;;14.30;;
67514;SDS011;60646;55.802;37.032;2024-03-02T13:39:35;31.65;;;15.00;;
67514;SDS011;60646;55.802;37.032;2024-03-02T13:42:09;33.10;;;14.40;;
67514;SDS011;60646;55.802;37.032;2024-03-02T13:44:36;30.60;;;14.23;;
67514;SDS011;60646;55.802;37.032;2024-03-02T13:47:02;33.40;;;14.52;;
67514;SDS011;60646;55.802;37.032;2024-03-02T13:49:29;30.17;;;14.95;;
67514;SDS011;60646;55.802;37.032;2024-03-02T13:52:06;28.05;;;14.00;;
67514;SDS011;60646;55.802;37.032;2024-03-02T13:54:43;29.85;;;13.48;;
67514;SDS011;60646;55.802;37.032;2024-03-02T13:57:10;36.20;;;14.85;;
67514;SDS011;60646;55.802;37.032;2024-03-02T13:59:37;29.67;;;13.95;;
67514;SDS011;60646;55.802;37.032;2024-03-02T14:02:04;24.58;;;13.80;;
67514;SDS011;60646;55.802;37.032;2024-03-02T14:04:31;29.20;;;13.55;;
67514;SDS011;60646;55.802;37.032;2024-03-02T14:07:00;26.33;;;13.32;;
67514;SDS011;60646;55.802;37.032;2024-03-02T14:09:27;27.83;;;13.60;;
67514;SDS011;60646;55.802;37.032;2024-03-02T14:11:54;28.98;;;13.85;;
67514;SDS011;60646;55.802;37.032;2024-03-02T14:14:21;27.48;;;13.93;;
67514;SDS011;60646;55.802;37.032;2024-03-02T14:16:46;25.88;;;13.38;;
67514;SDS011;60646;55.802;37.032;2024-03-02T14:19:12;27.73;;;13.05;;
67514;SDS011;60646;55.802;37.032;2024-03-02T14:21:41;28.13;;;13.40;;
67514;SDS011;60646;55.802;37.032;2024-03-02T14:24:07;31.05;;;13.68;;
67514;SDS011;60646;55.802;37.032;2024-03-02T14:26:33;30.00;;;13.60;;
67514;SDS011;60646;55.802;37.032;2024-03-02T14:29:00;28.23;;;13.77;;
67514;SDS011;60646;55.802;37.032;2024-03-02T14:31:29;29.80;;;12.90;;
67514;SDS011;60646;55.802;37.032;2024-03-02T14:33:56;31.15;;;14.90;;
67514;SDS011;60646;55.802;37.032;2024-03-02T14:36:22;30.00;;;13.18;;
67514;SDS011;60646;55.802;37.032;2024-03-02T14:38:48;24.85;;;13.23;;